createdAt,value
2022-08-17T00:01:28.310Z,63.65
2022-08-17T00:04:16.474Z,64.15
2022-08-17T00:07:04.847Z,64.42
2022-08-17T00:09:51.134Z,64.35
2022-08-17T00:12:44.839Z,64.39
2022-08-17T00:15:31.333Z,64.82
2022-08-17T00:19:01.092Z,65.58
2022-08-17T00:21:25.277Z,64.56
2022-08-17T00:24:12.119Z,65.44
2022-08-17T00:26:58.516Z,66.09
2022-08-17T00:29:44.880Z,65.86
2022-08-17T00:33:11.611Z,66.30
2022-08-17T00:35:48.178Z,66.27
2022-08-17T00:38:35.216Z,66.18
2022-08-17T00:41:24.929Z,65.66
2022-08-17T00:44:11.214Z,65.90
2022-08-17T00:46:57.594Z,65.84
2022-08-17T00:49:43.890Z,65.88
2022-08-17T00:52:36.282Z,66.40
2022-08-17T00:55:23.588Z,66.28
2022-08-17T00:58:10.465Z,68.23
2022-08-17T01:00:56.864Z,67.40
2022-08-17T01:03:43.310Z,68.65
2022-08-17T01:06:29.835Z,68.09
2022-08-17T01:09:17.421Z,68.86
2022-08-17T01:12:04.125Z,68.37
2022-08-17T01:14:55.320Z,67.94
2022-08-17T01:17:41.972Z,68.22
2022-08-17T01:20:28.302Z,68.88
2022-08-17T01:23:20.579Z,67.41
2022-08-17T01:26:07.015Z,68.12
2022-08-17T01:28:55.795Z,66.89
2022-08-17T01:31:49.411Z,68.08
2022-08-17T01:34:42.994Z,68.09
2022-08-17T01:37:36.255Z,66.85
2022-08-17T01:40:25.680Z,65.87
2022-08-17T01:43:16.007Z,66.19
2022-08-17T01:46:03.785Z,65.42
2022-08-17T01:48:50.361Z,65.34
2022-08-17T01:51:37.217Z,64.88
2022-08-17T01:54:24.362Z,64.57
2022-08-17T01:57:11.013Z,64.51
2022-08-17T01:59:56.600Z,64.83
2022-08-17T02:02:43.042Z,64.52
2022-08-17T02:05:29.430Z,64.39
2022-08-17T02:08:20.130Z,64.25
2022-08-17T02:11:11.714Z,63.56
2022-08-17T02:14:01.059Z,64.44
2022-08-17T02:16:49.864Z,63.81
2022-08-17T02:19:35.905Z,64.47
2022-08-17T02:22:22.833Z,64.24
2022-08-17T02:25:10.306Z,65.02
2022-08-17T02:27:56.776Z,64.88
2022-08-17T02:31:01.746Z,64.87
2022-08-17T02:34:00.554Z,65.17
2022-08-17T02:36:50.353Z,66.45
2022-08-17T02:39:36.822Z,66.25
2022-08-17T02:42:30.046Z,66.12
2022-08-17T02:45:20.158Z,66.86
2022-08-17T02:48:05.890Z,67.24
2022-08-17T02:50:52.200Z,66.23
2022-08-17T02:53:38.603Z,67.06
2022-08-17T02:56:24.870Z,67.30
2022-08-17T02:59:10.698Z,67.48
2022-08-17T03:01:57.271Z,67.24
2022-08-17T03:04:43.424Z,66.11
2022-08-17T03:07:29.776Z,65.87
2022-08-17T03:10:15.609Z,65.57
2022-08-17T03:13:01.859Z,65.62
2022-08-17T03:15:48.670Z,65.87
2022-08-17T03:18:35.087Z,66.13
2022-08-17T03:21:21.037Z,66.61
2022-08-17T03:24:09.159Z,66.79
2022-08-17T03:26:54.991Z,67.63
2022-08-17T03:29:41.102Z,67.51
2022-08-17T03:32:27.145Z,67.54
2022-08-17T03:35:15.053Z,67.17
2022-08-17T03:38:04.437Z,67.09
2022-08-17T03:40:56.465Z,67.16
2022-08-17T03:43:45.246Z,67.13
2022-08-17T03:46:35.227Z,67.04
2022-08-17T03:49:21.747Z,66.96
2022-08-17T03:52:07.748Z,67.09
2022-08-17T03:54:53.767Z,68.10
2022-08-17T03:57:39.950Z,68.18
2022-08-17T04:00:25.920Z,69.09
2022-08-17T04:03:13.605Z,69.20
2022-08-17T04:05:59.617Z,68.42
2022-08-17T04:08:45.627Z,67.59
2022-08-17T04:11:32.732Z,68.37
2022-08-17T04:14:18.907Z,68.54
2022-08-17T04:17:05.566Z,68.97
2022-08-17T04:19:52.077Z,69.26
2022-08-17T04:22:37.884Z,69.27
2022-08-17T04:25:25.040Z,68.90
2022-08-17T04:28:15.626Z,68.16
2022-08-17T04:31:02.342Z,67.86
2022-08-17T04:33:48.133Z,67.59
2022-08-17T04:36:34.464Z,68.00
2022-08-17T04:39:20.167Z,67.87
2022-08-17T04:42:08.238Z,67.85
2022-08-17T04:44:54.064Z,67.87
2022-08-17T04:47:41.553Z,67.22
2022-08-17T04:50:27.726Z,67.26
2022-08-17T04:53:16.224Z,67.29
2022-08-17T04:56:02.037Z,67.26
2022-08-17T04:58:50.563Z,66.37
2022-08-17T05:01:38.567Z,66.50
2022-08-17T05:04:34.165Z,66.17
2022-08-17T05:07:24.596Z,66.32
2022-08-17T05:10:12.578Z,66.76
2022-08-17T05:13:07.061Z,68.35
2022-08-17T05:15:56.179Z,67.80
2022-08-17T05:18:42.379Z,66.51
2022-08-17T05:21:28.851Z,66.64
2022-08-17T05:24:38.401Z,66.41
2022-08-17T05:27:21.258Z,65.18
2022-08-17T05:30:09.650Z,64.23
2022-08-17T05:33:04.326Z,64.06
2022-08-17T05:35:52.357Z,63.53
2022-08-17T05:38:38.315Z,64.46
2022-08-17T05:41:24.474Z,64.13
2022-08-17T05:44:10.828Z,63.88
2022-08-17T05:46:59.386Z,60.49
2022-08-17T05:49:45.647Z,61.06
2022-08-17T05:52:48.118Z,61.17
2022-08-17T05:56:10.877Z,59.73
2022-08-17T05:59:26.687Z,60.00
2022-08-17T06:02:24.814Z,59.81
2022-08-17T06:05:24.491Z,59.00
2022-08-17T06:08:31.349Z,58.30
2022-08-17T06:11:53.312Z,58.50
2022-08-17T06:15:34.151Z,57.26
2022-08-17T06:18:21.962Z,56.20
2022-08-17T06:21:08.732Z,56.35
2022-08-17T06:24:15.722Z,57.16
2022-08-17T06:27:08.011Z,55.73
2022-08-17T06:30:16.145Z,55.49
2022-08-17T06:33:08.436Z,55.27
2022-08-17T06:36:15.819Z,55.78
2022-08-17T06:39:18.992Z,55.17
2022-08-17T06:42:59.871Z,54.03
2022-08-17T06:45:37.029Z,54.79
2022-08-17T06:48:39.644Z,54.02
2022-08-17T06:51:39.670Z,54.02
2022-08-17T06:54:33.048Z,52.94
2022-08-17T06:57:23.318Z,52.33
2022-08-17T07:00:16.292Z,52.18
2022-08-17T07:03:01.844Z,51.38
2022-08-17T07:05:56.486Z,51.59
2022-08-17T07:09:03.841Z,49.69
2022-08-17T07:11:52.586Z,50.03
2022-08-17T07:14:48.769Z,51.40
2022-08-17T07:17:48.096Z,49.78
2022-08-17T07:20:34.808Z,49.50
2022-08-17T07:23:39.650Z,49.52
2022-08-17T07:26:25.683Z,49.62
2022-08-17T07:29:16.708Z,48.55
2022-08-17T07:32:04.194Z,48.84
2022-08-17T07:35:16.953Z,48.55
2022-08-17T07:38:24.661Z,48.11
2022-08-17T07:41:12.825Z,47.65
2022-08-17T07:43:58.506Z,47.87
2022-08-17T07:46:50.832Z,47.25
2022-08-17T07:49:42.718Z,46.80
2022-08-17T07:52:50.502Z,47.60
2022-08-17T07:55:37.969Z,46.82
2022-08-17T07:58:25.737Z,46.65
2022-08-17T08:01:15.450Z,46.80
2022-08-17T08:07:41.862Z,45.87
2022-08-17T08:10:42.719Z,45.31
2022-08-17T08:13:32.149Z,44.84
2022-08-17T08:16:28.906Z,45.16
2022-08-17T08:19:18.183Z,43.47
2022-08-17T08:22:11.722Z,43.05
2022-08-17T08:25:06.636Z,43.03
2022-08-17T08:28:21.586Z,41.78
2022-08-17T08:31:27.043Z,41.72
2022-08-17T08:35:00.800Z,40.98
2022-08-17T08:37:43.241Z,40.61
2022-08-17T08:40:48.578Z,40.04
2022-08-17T08:43:52.224Z,40.03
2022-08-17T08:46:49.855Z,40.14
2022-08-17T08:50:04.828Z,39.15
2022-08-17T08:53:17.076Z,39.73
2022-08-17T08:56:28.081Z,38.49
2022-08-17T08:59:30.990Z,39.13
2022-08-17T09:02:51.256Z,39.63
2022-08-17T09:06:02.944Z,38.33
2022-08-17T09:09:10.369Z,38.53
2022-08-17T09:12:14.595Z,37.79
2022-08-17T09:15:18.330Z,38.10
2022-08-17T09:19:01.044Z,38.40
2022-08-17T09:21:24.133Z,37.32
2022-08-17T09:24:31.152Z,36.27
2022-08-17T09:27:55.345Z,35.31
2022-08-17T09:30:44.369Z,35.74
2022-08-17T09:33:35.397Z,36.48
2022-08-17T09:37:03.124Z,35.71
2022-08-17T09:40:24.460Z,35.87
2022-08-17T09:43:39.394Z,34.71
2022-08-17T09:46:29.440Z,33.72
2022-08-17T09:49:46.411Z,34.40
2022-08-17T09:52:32.619Z,33.07
2022-08-17T09:55:18.989Z,31.67
2022-08-17T09:58:15.807Z,31.64
2022-08-17T10:01:10.065Z,32.41
2022-08-17T10:04:17.764Z,32.55
2022-08-17T10:07:19.273Z,31.58
2022-08-17T10:10:14.070Z,29.59
2022-08-17T10:13:53.006Z,30.10
2022-08-17T10:16:44.292Z,28.80
2022-08-17T10:19:44.079Z,29.29
2022-08-17T10:22:44.611Z,28.82
2022-08-17T10:25:53.685Z,29.51
2022-08-17T10:28:51.937Z,30.54
2022-08-17T10:31:50.564Z,29.74
2022-08-17T10:34:41.525Z,29.87
2022-08-17T10:37:48.141Z,30.15
2022-08-17T10:40:51.761Z,29.22
2022-08-17T10:44:35.419Z,27.81
2022-08-17T10:47:15.917Z,27.59
2022-08-17T10:50:40.229Z,27.36
2022-08-17T10:53:32.789Z,26.53
2022-08-17T10:56:22.269Z,27.55
2022-08-17T10:59:33.830Z,26.90
2022-08-17T11:02:22.954Z,25.71
2022-08-17T11:05:15.877Z,27.35
2022-08-17T11:08:22.404Z,28.18
2022-08-17T11:11:15.087Z,29.04
2022-08-17T11:14:28.082Z,28.31
2022-08-17T11:17:39.566Z,26.94
2022-08-17T11:20:28.417Z,29.46
2022-08-17T11:23:33.061Z,28.29
2022-08-17T11:26:23.568Z,28.00
2022-08-17T11:29:24.650Z,27.81
2022-08-17T11:32:35.948Z,27.50
2022-08-17T11:35:22.326Z,27.89
2022-08-17T11:38:24.320Z,27.40
2022-08-17T11:41:16.386Z,27.22
2022-08-17T11:44:09.131Z,26.37
2022-08-17T11:47:30.662Z,25.79
2022-08-17T11:50:45.706Z,25.98
2022-08-17T11:53:37.739Z,25.48
2022-08-17T11:56:53.154Z,25.98
2022-08-17T11:59:39.298Z,26.21
2022-08-17T12:02:29.929Z,25.86
2022-08-17T12:05:17.866Z,27.25
2022-08-17T12:08:17.342Z,27.21
2022-08-17T12:11:07.576Z,27.72
2022-08-17T12:13:56.185Z,26.58
2022-08-17T12:16:42.434Z,25.60
2022-08-17T12:19:28.757Z,26.10
2022-08-17T12:22:25.133Z,27.19
2022-08-17T12:25:16.843Z,27.50
2022-08-17T12:28:06.002Z,26.57
2022-08-17T12:30:53.463Z,25.67
2022-08-17T12:33:44.069Z,25.78
2022-08-17T12:36:30.668Z,25.59
2022-08-17T12:39:22.307Z,24.18
2022-08-17T12:42:23.457Z,24.41
2022-08-17T12:45:27.540Z,23.60
2022-08-17T12:48:22.763Z,23.13
2022-08-17T12:51:08.929Z,23.44
2022-08-17T12:53:55.260Z,23.20
2022-08-17T12:56:45.719Z,23.36
2022-08-17T12:59:33.634Z,21.74
2022-08-17T13:02:25.180Z,20.98
2022-08-17T13:05:17.278Z,21.03
2022-08-17T13:08:14.675Z,21.83
2022-08-17T13:11:05.395Z,22.27
2022-08-17T13:13:56.234Z,22.50
2022-08-17T13:16:48.590Z,22.93
2022-08-17T13:19:41.018Z,22.35
2022-08-17T13:22:28.650Z,22.53
2022-08-17T13:25:16.769Z,21.64
2022-08-17T13:28:02.843Z,21.14
2022-08-17T13:30:48.728Z,21.38
2022-08-17T13:33:43.331Z,20.72
2022-08-17T13:36:31.248Z,20.53
2022-08-17T13:39:20.160Z,22.09
2022-08-17T13:42:51.741Z,22.13
2022-08-17T13:45:45.408Z,22.91
2022-08-17T13:48:36.926Z,23.18
2022-08-17T13:51:26.409Z,23.14
2022-08-17T13:54:30.011Z,23.40
2022-08-17T13:57:23.757Z,22.38
2022-08-17T14:00:19.578Z,22.82
2022-08-17T14:03:05.768Z,22.28
2022-08-17T14:05:52.437Z,22.85
2022-08-17T14:08:38.582Z,22.53
2022-08-17T14:11:24.359Z,22.78
2022-08-17T14:14:12.554Z,21.70
2022-08-17T14:16:59.377Z,21.70
2022-08-17T14:19:45.523Z,21.37
2022-08-17T14:22:34.081Z,21.69
2022-08-17T14:25:23.176Z,21.01
2022-08-17T14:28:11.135Z,21.42
2022-08-17T14:30:57.274Z,21.43
2022-08-17T14:33:49.163Z,21.23
2022-08-17T14:36:35.420Z,20.55
2022-08-17T14:39:21.497Z,21.77
2022-08-17T14:42:07.489Z,21.87
2022-08-17T14:44:54.667Z,21.90
2022-08-17T14:47:43.831Z,21.07
2022-08-17T14:50:30.085Z,20.87
2022-08-17T14:53:23.380Z,21.13
2022-08-17T14:56:09.301Z,20.23
2022-08-17T14:58:55.524Z,20.74
2022-08-17T15:01:41.216Z,20.68
2022-08-17T15:04:27.348Z,21.68
2022-08-17T15:07:16.643Z,22.11
2022-08-17T15:10:02.858Z,21.72
2022-08-17T15:12:49.087Z,21.16
2022-08-17T15:15:35.767Z,20.91
2022-08-17T15:18:21.646Z,21.20
2022-08-17T15:21:09.232Z,21.28
2022-08-17T15:23:55.226Z,20.76
2022-08-17T15:26:41.065Z,21.42
2022-08-17T15:29:27.088Z,21.04
2022-08-17T15:32:28.036Z,20.19
2022-08-17T15:35:14.127Z,21.14
2022-08-17T15:38:11.171Z,21.47
2022-08-17T15:40:57.967Z,21.38
2022-08-17T15:43:48.422Z,21.40
2022-08-17T15:46:35.300Z,21.71
2022-08-17T15:49:21.374Z,21.67
2022-08-17T15:52:20.526Z,22.14
2022-08-17T15:55:09.659Z,22.61
2022-08-17T15:57:55.328Z,22.58
2022-08-17T16:00:49.911Z,22.18
2022-08-17T16:04:01.298Z,21.80
2022-08-17T16:06:45.318Z,22.86
2022-08-17T16:09:31.254Z,22.93
2022-08-17T16:12:21.331Z,22.22
2022-08-17T16:15:07.838Z,22.94
2022-08-17T16:17:53.802Z,22.95
2022-08-17T16:20:40.655Z,23.33
2022-08-17T16:23:26.391Z,23.53
2022-08-17T16:26:12.377Z,23.98
2022-08-17T16:29:00.807Z,23.71
2022-08-17T16:31:47.194Z,23.36
2022-08-17T16:34:33.163Z,24.18
2022-08-17T16:37:19.045Z,24.30
2022-08-17T16:40:06.949Z,24.04
2022-08-17T16:42:53.755Z,24.09
2022-08-17T16:45:39.493Z,24.46
2022-08-17T16:48:27.291Z,24.23
2022-08-17T16:51:14.449Z,24.33
2022-08-17T16:54:00.589Z,24.87
2022-08-17T16:56:46.740Z,24.35
2022-08-17T16:59:40.846Z,24.70
2022-08-17T17:02:35.159Z,24.91
2022-08-17T17:05:45.072Z,25.18
2022-08-17T17:08:50.547Z,25.90
2022-08-17T17:11:42.590Z,26.40
2022-08-17T17:14:41.941Z,26.36
2022-08-17T17:17:35.494Z,25.95
2022-08-17T17:20:36.416Z,27.13
2022-08-17T17:23:40.701Z,27.76
2022-08-17T17:26:38.579Z,28.06
2022-08-17T17:29:47.427Z,28.72
2022-08-17T17:32:41.540Z,28.71
2022-08-17T17:35:55.300Z,29.68
2022-08-17T17:38:45.707Z,30.07
2022-08-17T17:41:43.597Z,30.16
2022-08-17T17:44:35.513Z,30.14
2022-08-17T17:47:21.644Z,30.71
2022-08-17T17:50:08.135Z,31.27
2022-08-17T17:53:34.828Z,32.05
2022-08-17T17:56:53.369Z,32.16
2022-08-17T17:59:44.211Z,32.66
2022-08-17T18:02:36.456Z,33.12
2022-08-17T18:05:39.935Z,32.56
2022-08-17T18:08:32.109Z,33.79
2022-08-17T18:11:51.387Z,33.86
2022-08-17T18:14:58.258Z,34.94
2022-08-17T18:18:14.300Z,34.95
2022-08-17T18:21:02.018Z,35.16
2022-08-17T18:23:53.023Z,35.46
2022-08-17T18:26:40.420Z,36.48
2022-08-17T18:29:35.147Z,36.46
2022-08-17T18:32:30.033Z,36.79
2022-08-17T18:35:18.862Z,36.38
2022-08-17T18:38:27.090Z,36.95
2022-08-17T18:41:19.663Z,37.28
2022-08-17T18:44:20.851Z,36.96
2022-08-17T18:47:15.933Z,37.81
2022-08-17T18:50:26.344Z,37.27
2022-08-17T18:53:39.227Z,38.35
2022-08-17T18:56:36.794Z,39.31
2022-08-17T18:59:34.913Z,39.07
2022-08-17T19:02:43.345Z,38.32
2022-08-17T19:05:41.756Z,38.36
2022-08-17T19:08:28.135Z,39.37
2022-08-17T19:11:23.873Z,38.81
2022-08-17T19:14:12.480Z,37.36
2022-08-17T19:17:10.106Z,38.05
2022-08-17T19:20:02.713Z,37.39
2022-08-17T19:23:00.090Z,38.46
2022-08-17T19:25:52.591Z,38.40
2022-08-17T19:28:48.450Z,37.68
2022-08-17T19:31:34.954Z,38.57
2022-08-17T19:34:33.184Z,37.88
2022-08-17T19:37:23.145Z,38.48
2022-08-17T19:40:52.335Z,38.66
2022-08-17T19:43:44.511Z,39.12
2022-08-17T19:46:56.251Z,39.54
2022-08-17T19:49:49.718Z,40.80
2022-08-17T19:52:39.221Z,40.70
2022-08-17T19:55:36.142Z,41.25
2022-08-17T19:58:34.979Z,41.76
2022-08-17T20:01:34.818Z,42.13
2022-08-17T20:04:31.722Z,42.07
2022-08-17T20:07:57.754Z,43.94
2022-08-17T20:10:54.570Z,43.95
2022-08-17T20:13:49.206Z,43.78
2022-08-17T20:16:35.196Z,44.47
2022-08-17T20:19:38.083Z,44.68
2022-08-17T20:22:27.146Z,43.87
2022-08-17T20:25:23.606Z,43.33
2022-08-17T20:28:22.740Z,42.93
2022-08-17T20:31:47.324Z,41.99
2022-08-17T20:34:38.010Z,42.18
2022-08-17T20:37:29.122Z,42.40
2022-08-17T20:40:21.007Z,42.39
2022-08-17T20:43:34.882Z,42.32
2022-08-17T20:46:30.569Z,41.80
2022-08-17T20:49:22.226Z,42.71
2022-08-17T20:52:36.058Z,42.50
2022-08-17T20:55:33.892Z,42.05
2022-08-17T20:58:19.726Z,42.21
2022-08-17T21:01:15.083Z,42.26
2022-08-17T21:04:06.184Z,42.16
2022-08-17T21:07:32.901Z,42.28
2022-08-17T21:10:25.773Z,42.22
2022-08-17T21:13:11.501Z,41.94
2022-08-17T21:16:09.511Z,42.62
2022-08-17T21:19:13.251Z,43.98
2022-08-17T21:22:25.443Z,44.05
2022-08-17T21:25:39.366Z,44.82
2022-08-17T21:28:34.104Z,44.96
2022-08-17T21:31:36.328Z,44.34
2022-08-17T21:34:27.891Z,44.31
2022-08-17T21:37:19.832Z,43.87
2022-08-17T21:40:09.872Z,44.66
2022-08-17T21:43:06.231Z,44.13
2022-08-17T21:46:00.536Z,43.81
2022-08-17T21:48:48.296Z,43.11
2022-08-17T21:51:37.982Z,43.21
2022-08-17T21:54:29.707Z,43.66
2022-08-17T21:57:22.366Z,45.73
2022-08-17T22:00:09.049Z,45.69
2022-08-17T22:02:57.826Z,45.26
2022-08-17T22:05:44.391Z,45.82
2022-08-17T22:08:30.887Z,44.55
2022-08-17T22:11:16.841Z,44.50
2022-08-17T22:14:06.003Z,43.67
2022-08-17T22:17:09.663Z,44.74
2022-08-17T22:20:00.440Z,46.40
2022-08-17T22:22:46.319Z,47.07
2022-08-17T22:25:34.833Z,48.43
2022-08-17T22:28:45.843Z,48.65
2022-08-17T22:31:55.742Z,50.36
2022-08-17T22:34:41.790Z,51.03
2022-08-17T22:37:28.785Z,51.99
2022-08-17T22:40:32.456Z,52.36
2022-08-17T22:43:20.695Z,52.17
2022-08-17T22:46:12.489Z,52.58
2022-08-17T22:48:59.083Z,51.89
2022-08-17T22:51:45.299Z,52.33
2022-08-17T22:54:31.708Z,54.29
2022-08-17T22:57:18.785Z,54.26
2022-08-17T23:00:28.602Z,54.00
2022-08-17T23:03:14.828Z,54.52
2022-08-17T23:06:05.691Z,54.42
2022-08-17T23:08:52.901Z,54.70
2022-08-17T23:11:49.132Z,54.93
2022-08-17T23:14:40.595Z,55.03
2022-08-17T23:17:35.122Z,56.03
2022-08-17T23:20:22.960Z,56.36
2022-08-17T23:23:10.617Z,57.12
2022-08-17T23:25:56.563Z,57.29
2022-08-17T23:28:42.865Z,57.26
2022-08-17T23:31:28.573Z,57.31
2022-08-17T23:34:15.200Z,57.76
2022-08-17T23:37:00.981Z,58.13
2022-08-17T23:39:47.541Z,58.40
2022-08-17T23:42:33.815Z,59.29
2022-08-17T23:45:20.365Z,59.01
2022-08-17T23:48:06.578Z,59.52
2022-08-17T23:50:54.733Z,60.41
2022-08-17T23:53:47.313Z,60.67
2022-08-17T23:56:33.434Z,60.79
2022-08-17T23:59:21.077Z,61.24
